createdAt,value
2018-08-18T00:00:15.389Z,18.95
2018-08-18T00:02:44.084Z,18.76
2018-08-18T00:05:13.852Z,18.69
2018-08-18T00:07:42.574Z,18.58
2018-08-18T00:10:12.765Z,18.54
2018-08-18T00:12:41.529Z,18.56
2018-08-18T00:15:10.742Z,18.46
2018-08-18T00:17:40.160Z,18.44
2018-08-18T00:20:11.176Z,18.56
2018-08-18T00:22:39.982Z,18.54
2018-08-18T00:25:08.796Z,18.60
2018-08-18T00:27:37.509Z,18.74
2018-08-18T00:30:12.506Z,18.74
2018-08-18T00:32:41.225Z,18.76
2018-08-18T00:35:09.968Z,18.77
2018-08-18T00:37:38.702Z,18.89
2018-08-18T00:40:08.992Z,18.82
2018-08-18T00:42:38.410Z,18.76
2018-08-18T00:45:08.991Z,18.77
2018-08-18T00:47:38.310Z,18.65
2018-08-18T00:50:07.754Z,18.77
2018-08-18T00:52:36.806Z,19.00
2018-08-18T00:55:05.961Z,18.87
2018-08-18T00:57:35.136Z,18.90
2018-08-18T01:00:05.307Z,18.84
2018-08-18T01:02:34.465Z,18.86
2018-08-18T01:05:03.661Z,18.89
2018-08-18T01:07:33.369Z,18.88
2018-08-18T01:10:02.991Z,18.99
2018-08-18T01:12:32.279Z,19.01
2018-08-18T01:15:01.494Z,18.98
2018-08-18T01:17:30.669Z,18.84
2018-08-18T01:19:59.906Z,18.74
2018-08-18T01:22:29.086Z,18.72
2018-08-18T01:24:58.261Z,18.74
2018-08-18T01:27:27.546Z,18.70
2018-08-18T01:30:01.553Z,18.68
2018-08-18T01:32:32.154Z,18.82
2018-08-18T01:35:01.485Z,18.90
2018-08-18T01:37:31.672Z,18.92
2018-08-18T01:40:00.379Z,18.85
2018-08-18T01:42:30.921Z,18.80
2018-08-18T01:45:00.049Z,18.96
2018-08-18T01:47:29.009Z,18.91
2018-08-18T01:50:04.112Z,18.94
2018-08-18T01:52:33.378Z,18.87
2018-08-18T01:55:02.108Z,18.73
2018-08-18T01:57:30.814Z,18.69
2018-08-18T02:00:00.510Z,18.69
2018-08-18T02:02:29.657Z,18.73
2018-08-18T02:05:06.769Z,18.75
2018-08-18T02:07:35.465Z,18.74
2018-08-18T02:10:05.948Z,18.65
2018-08-18T02:12:35.252Z,18.76
2018-08-18T02:15:04.558Z,18.68
2018-08-18T02:17:35.001Z,18.71
2018-08-18T02:20:04.225Z,18.74
2018-08-18T02:22:33.446Z,18.82
2018-08-18T02:25:02.572Z,18.73
2018-08-18T02:27:31.773Z,18.66
2018-08-18T02:30:18.693Z,18.61
2018-08-18T02:32:47.428Z,18.51
2018-08-18T02:35:16.145Z,18.43
2018-08-18T02:37:44.840Z,18.58
2018-08-18T02:40:16.296Z,18.61
2018-08-18T02:42:45.126Z,18.56
2018-08-18T02:45:15.101Z,18.63
2018-08-18T02:47:44.210Z,18.71
2018-08-18T02:50:14.286Z,18.83
2018-08-18T02:52:43.618Z,18.90
2018-08-18T02:55:13.202Z,18.76
2018-08-18T02:57:44.248Z,18.87
2018-08-18T03:00:23.991Z,18.94
2018-08-18T03:02:53.232Z,19.01
2018-08-18T03:05:22.414Z,18.93
2018-08-18T03:07:52.568Z,18.96
2018-08-18T03:10:27.697Z,18.95
2018-08-18T03:12:57.816Z,18.83
2018-08-18T03:16:01.702Z,18.98
2018-08-18T03:18:37.118Z,18.74
2018-08-18T03:21:06.452Z,18.75
2018-08-18T03:23:35.805Z,18.68
2018-08-18T03:26:05.298Z,18.57
2018-08-18T03:28:39.561Z,18.55
2018-08-18T03:31:08.787Z,18.58
2018-08-18T03:33:37.954Z,18.56
2018-08-18T03:36:21.927Z,18.42
2018-08-18T03:38:51.009Z,18.44
2018-08-18T03:41:20.773Z,18.54
2018-08-18T03:43:50.193Z,18.47
2018-08-18T03:46:18.922Z,18.62
2018-08-18T03:48:48.294Z,18.62
2018-08-18T03:51:17.430Z,18.57
2018-08-18T03:53:46.723Z,18.53
2018-08-18T03:56:15.829Z,18.69
2018-08-18T03:58:53.690Z,18.80
2018-08-18T04:01:43.665Z,19.01
2018-08-18T04:04:14.047Z,19.00
2018-08-18T04:06:44.116Z,19.01
2018-08-18T04:09:17.735Z,18.97
2018-08-18T04:11:46.860Z,18.83
2018-08-18T04:14:18.822Z,18.75
2018-08-18T04:16:49.946Z,18.86
2018-08-18T04:19:19.828Z,19.02
2018-08-18T04:21:50.669Z,19.20
2018-08-18T04:24:20.020Z,19.50
2018-08-18T04:26:50.346Z,19.82
2018-08-18T04:29:21.417Z,20.00
2018-08-18T04:31:50.608Z,20.16
2018-08-18T04:34:19.756Z,20.25
2018-08-18T04:36:48.967Z,20.78
2018-08-18T04:39:18.245Z,21.71
2018-08-18T04:41:47.492Z,22.87
2018-08-18T04:44:16.648Z,24.30
2018-08-18T04:46:45.762Z,24.78
2018-08-18T04:49:15.410Z,24.28
2018-08-18T04:51:44.549Z,24.33
2018-08-18T04:54:13.648Z,25.15
2018-08-18T04:56:42.901Z,26.12
2018-08-18T04:59:12.104Z,26.88
2018-08-18T05:01:41.722Z,27.90
2018-08-18T05:04:12.424Z,28.94
2018-08-18T05:06:42.947Z,29.03
2018-08-18T05:09:13.299Z,29.39
2018-08-18T05:11:42.376Z,30.32
2018-08-18T05:14:11.539Z,30.65
2018-08-18T05:16:40.742Z,31.83
2018-08-18T05:19:09.959Z,32.18
2018-08-18T05:21:39.162Z,31.56
2018-08-18T05:24:21.637Z,31.60
2018-08-18T05:26:51.321Z,31.93
2018-08-18T05:29:20.626Z,31.27
2018-08-18T05:31:49.741Z,31.64
2018-08-18T05:34:18.993Z,32.02
2018-08-18T05:36:48.179Z,32.42
2018-08-18T05:39:17.441Z,33.19
2018-08-18T05:41:46.638Z,33.66
2018-08-18T05:44:15.840Z,32.81
2018-08-18T05:46:45.314Z,34.06
2018-08-18T05:49:15.134Z,34.21
2018-08-18T05:51:47.297Z,33.46
2018-08-18T05:54:21.577Z,33.94
2018-08-18T05:56:50.743Z,34.01
2018-08-18T05:59:19.966Z,34.63
2018-08-18T06:01:49.192Z,35.57
2018-08-18T06:04:19.534Z,35.79
2018-08-18T06:06:49.403Z,35.64
2018-08-18T06:09:20.817Z,35.37
2018-08-18T06:11:50.021Z,36.37
2018-08-18T06:14:19.510Z,35.46
2018-08-18T06:16:48.892Z,34.94
2018-08-18T06:19:18.114Z,35.86
2018-08-18T06:21:47.227Z,35.25
2018-08-18T06:24:16.416Z,34.47
2018-08-18T06:26:45.632Z,32.91
2018-08-18T06:29:14.981Z,32.79
2018-08-18T06:31:58.558Z,31.84
2018-08-18T06:34:29.721Z,31.88
2018-08-18T06:36:58.912Z,31.78
2018-08-18T06:39:29.237Z,32.20
2018-08-18T06:41:58.499Z,33.03
2018-08-18T06:44:28.234Z,32.71
2018-08-18T06:46:57.518Z,32.12
2018-08-18T06:49:26.658Z,32.56
2018-08-18T06:51:55.820Z,32.18
2018-08-18T06:54:25.101Z,32.26
2018-08-18T06:56:54.225Z,31.66
2018-08-18T06:59:23.449Z,31.52
2018-08-18T07:01:52.625Z,32.33
2018-08-18T07:04:25.958Z,33.45
2018-08-18T07:06:55.119Z,33.00
2018-08-18T07:09:24.307Z,33.65
2018-08-18T07:11:53.510Z,32.89
2018-08-18T07:14:22.701Z,33.31
2018-08-18T07:16:51.913Z,33.74
2018-08-18T07:19:21.148Z,33.86
2018-08-18T07:21:50.296Z,33.95
2018-08-18T07:24:19.521Z,33.70
2018-08-18T07:26:48.700Z,34.66
2018-08-18T07:29:17.893Z,35.83
2018-08-18T07:31:47.093Z,36.85
2018-08-18T07:34:16.393Z,36.56
2018-08-18T07:36:45.637Z,36.67
2018-08-18T07:39:14.789Z,37.51
2018-08-18T07:41:43.990Z,37.52
2018-08-18T07:44:13.202Z,37.94
2018-08-18T07:46:42.418Z,36.99
2018-08-18T07:49:11.562Z,37.44
2018-08-18T07:51:40.590Z,37.89
2018-08-18T07:54:09.656Z,38.02
2018-08-18T07:56:38.797Z,37.55
2018-08-18T07:59:07.974Z,37.26
2018-08-18T08:01:37.210Z,37.43
2018-08-18T08:04:06.423Z,37.18
2018-08-18T08:06:35.662Z,36.99
2018-08-18T08:09:05.050Z,37.76
2018-08-18T08:11:34.256Z,37.26
2018-08-18T08:14:03.624Z,37.72
2018-08-18T08:16:32.870Z,37.04
2018-08-18T08:19:02.062Z,37.66
2018-08-18T08:21:31.261Z,38.65
2018-08-18T08:24:00.741Z,38.48
2018-08-18T08:26:29.816Z,38.87
2018-08-18T08:28:58.953Z,38.74
2018-08-18T08:31:28.257Z,39.32
2018-08-18T08:33:57.557Z,39.48
2018-08-18T08:36:26.760Z,39.62
2018-08-18T08:38:59.101Z,38.61
2018-08-18T08:41:29.416Z,39.09
2018-08-18T08:43:58.650Z,39.04
2018-08-18T08:46:27.896Z,38.91
2018-08-18T08:48:59.178Z,38.03
2018-08-18T08:51:28.442Z,38.25
2018-08-18T08:53:58.749Z,37.32
2018-08-18T08:56:34.933Z,35.88
2018-08-18T08:59:04.245Z,37.16
2018-08-18T09:01:33.485Z,38.28
2018-08-18T09:04:03.030Z,37.80
2018-08-18T09:06:32.413Z,38.02
2018-08-18T09:09:01.512Z,38.65
2018-08-18T09:11:30.717Z,38.61
2018-08-18T09:14:03.478Z,38.72
2018-08-18T09:16:33.589Z,38.26
2018-08-18T09:19:02.804Z,37.61
2018-08-18T09:21:39.563Z,38.42
2018-08-18T09:24:08.698Z,39.16
2018-08-18T09:26:43.014Z,39.66
2018-08-18T09:29:12.789Z,39.42
2018-08-18T09:31:42.596Z,39.62
2018-08-18T09:34:12.243Z,40.67
2018-08-18T09:36:42.103Z,40.78
2018-08-18T09:39:17.620Z,39.50
2018-08-18T09:41:47.382Z,39.82
2018-08-18T09:44:21.582Z,39.20
2018-08-18T09:46:51.590Z,39.39
2018-08-18T09:49:20.757Z,39.45
2018-08-18T09:51:49.918Z,39.50
2018-08-18T09:54:19.117Z,39.11
2018-08-18T09:56:48.361Z,38.78
2018-08-18T09:59:17.789Z,38.89
2018-08-18T10:01:46.927Z,38.86
2018-08-18T10:04:16.113Z,39.06
2018-08-18T10:06:45.241Z,39.46
2018-08-18T10:09:14.446Z,39.65
2018-08-18T10:11:43.649Z,39.74
2018-08-18T10:14:12.694Z,38.43
2018-08-18T10:16:41.906Z,38.79
2018-08-18T10:19:11.206Z,38.27
2018-08-18T10:21:40.385Z,37.45
2018-08-18T10:24:10.382Z,37.58
2018-08-18T10:26:39.817Z,37.63
2018-08-18T10:29:27.365Z,38.05
2018-08-18T10:31:57.740Z,37.60
2018-08-18T10:34:28.997Z,38.10
2018-08-18T10:37:04.111Z,38.31
2018-08-18T10:39:33.273Z,39.64
2018-08-18T10:42:21.606Z,40.27
2018-08-18T10:44:56.070Z,39.53
2018-08-18T10:47:25.393Z,39.96
2018-08-18T10:50:05.246Z,40.43
2018-08-18T10:52:45.437Z,39.08
2018-08-18T10:55:15.963Z,38.83
2018-08-18T10:58:00.913Z,39.94
2018-08-18T11:00:31.203Z,38.93
2018-08-18T11:03:02.403Z,39.51
2018-08-18T11:05:31.759Z,38.60
2018-08-18T11:08:05.974Z,39.53
2018-08-18T11:10:38.975Z,39.34
2018-08-18T11:13:08.010Z,39.08
2018-08-18T11:15:37.193Z,40.12
2018-08-18T11:18:06.397Z,39.04
2018-08-18T11:20:36.026Z,39.49
2018-08-18T11:23:14.564Z,40.34
2018-08-18T11:25:49.452Z,40.24
2018-08-18T11:28:18.977Z,39.48
2018-08-18T11:30:49.726Z,39.42
2018-08-18T11:33:43.019Z,38.85
2018-08-18T11:36:12.947Z,39.02
2018-08-18T11:38:42.101Z,37.80
2018-08-18T11:41:11.352Z,38.99
2018-08-18T11:43:48.034Z,39.50
2018-08-18T11:46:17.325Z,40.96
2018-08-18T11:48:46.536Z,39.84
2018-08-18T11:51:15.729Z,39.22
2018-08-18T11:53:56.682Z,38.88
2018-08-18T11:56:25.838Z,40.44
2018-08-18T11:59:07.126Z,41.08
2018-08-18T12:01:37.980Z,40.16
2018-08-18T12:04:07.499Z,40.43
2018-08-18T12:06:41.727Z,39.09
2018-08-18T12:09:10.774Z,39.54
2018-08-18T12:11:39.559Z,40.03
2018-08-18T12:14:08.253Z,39.46
2018-08-18T12:16:36.963Z,39.43
2018-08-18T12:19:05.757Z,40.16
2018-08-18T12:21:50.003Z,40.33
2018-08-18T12:24:20.181Z,41.13
2018-08-18T12:27:00.025Z,40.61
2018-08-18T12:29:31.004Z,39.91
2018-08-18T12:32:00.233Z,40.14
2018-08-18T12:34:29.503Z,40.84
2018-08-18T12:36:58.748Z,40.72
2018-08-18T12:39:27.877Z,39.56
2018-08-18T12:41:57.061Z,38.24
2018-08-18T12:44:31.352Z,38.02
2018-08-18T12:47:03.643Z,37.82
2018-08-18T12:49:33.056Z,37.65
2018-08-18T12:52:02.229Z,38.65
2018-08-18T12:54:31.426Z,39.08
2018-08-18T12:57:00.129Z,39.48
2018-08-18T12:59:29.220Z,40.14
2018-08-18T13:01:57.985Z,39.43
2018-08-18T13:04:26.765Z,38.15
2018-08-18T13:06:59.153Z,37.26
2018-08-18T13:09:31.902Z,36.12
2018-08-18T13:12:06.212Z,35.32
2018-08-18T13:14:39.092Z,34.84
2018-08-18T13:17:12.301Z,34.63
2018-08-18T13:19:44.958Z,34.72
2018-08-18T13:22:17.679Z,34.83
2018-08-18T13:24:47.121Z,35.03
2018-08-18T13:27:16.304Z,35.11
2018-08-18T13:29:45.509Z,34.09
2018-08-18T13:32:14.798Z,33.15
2018-08-18T13:34:44.192Z,33.22
2018-08-18T13:37:13.499Z,32.89
2018-08-18T13:39:42.615Z,33.29
2018-08-18T13:42:24.246Z,33.05
2018-08-18T13:44:53.990Z,32.70
2018-08-18T13:47:23.293Z,32.76
2018-08-18T13:49:58.011Z,32.98
2018-08-18T13:52:29.106Z,33.21
2018-08-18T13:54:58.279Z,33.31
2018-08-18T13:57:31.404Z,33.19
2018-08-18T14:00:00.830Z,33.26
2018-08-18T14:02:30.062Z,33.16
2018-08-18T14:04:59.265Z,33.34
2018-08-18T14:07:28.262Z,33.27
2018-08-18T14:10:02.477Z,32.72
2018-08-18T14:12:31.562Z,32.84
2018-08-18T14:15:00.773Z,32.68
2018-08-18T14:17:30.021Z,32.65
2018-08-18T14:19:59.015Z,32.57
2018-08-18T14:22:28.043Z,32.78
2018-08-18T14:24:57.347Z,33.01
2018-08-18T14:27:26.621Z,32.90
2018-08-18T14:29:55.640Z,33.16
2018-08-18T14:32:27.862Z,33.30
2018-08-18T14:35:01.841Z,33.38
2018-08-18T14:37:31.056Z,32.98
2018-08-18T14:40:00.090Z,33.27
2018-08-18T14:42:29.201Z,33.46
2018-08-18T14:44:59.641Z,33.43
2018-08-18T14:47:28.832Z,33.66
2018-08-18T14:50:12.786Z,33.80
2018-08-18T14:52:42.929Z,33.70
2018-08-18T14:55:12.033Z,33.76
2018-08-18T14:57:51.064Z,33.60
2018-08-18T15:00:20.525Z,32.86
2018-08-18T15:02:51.376Z,31.54
2018-08-18T15:05:20.461Z,30.24
2018-08-18T15:07:51.091Z,29.84
2018-08-18T15:10:30.942Z,29.08
2018-08-18T15:13:00.795Z,28.63
2018-08-18T15:15:31.948Z,27.97
2018-08-18T15:18:05.081Z,27.02
2018-08-18T15:20:35.316Z,25.67
2018-08-18T15:23:05.153Z,24.25
2018-08-18T15:25:35.159Z,23.62
2018-08-18T15:28:09.125Z,23.17
2018-08-18T15:30:39.209Z,22.65
2018-08-18T15:33:09.603Z,22.25
2018-08-18T15:35:39.579Z,21.93
2018-08-18T15:38:09.505Z,21.53
2018-08-18T15:40:38.218Z,21.31
2018-08-18T15:43:06.982Z,21.09
2018-08-18T15:45:46.764Z,20.87
2018-08-18T15:48:15.590Z,20.78
2018-08-18T15:50:44.322Z,20.87
2018-08-18T15:53:13.230Z,20.95
2018-08-18T15:55:41.966Z,21.06
2018-08-18T15:58:10.933Z,21.00
2018-08-18T16:00:39.652Z,21.16
2018-08-18T16:03:08.391Z,21.36
2018-08-18T16:05:37.106Z,21.54
2018-08-18T16:08:05.831Z,21.50
2018-08-18T16:10:34.578Z,21.45
2018-08-18T16:13:03.315Z,21.46
2018-08-18T16:15:32.121Z,21.54
2018-08-18T16:18:00.830Z,21.45
2018-08-18T16:20:29.883Z,21.38
2018-08-18T16:22:59.321Z,21.40
2018-08-18T16:25:37.214Z,21.59
2018-08-18T16:28:06.660Z,21.79
2018-08-18T16:30:35.818Z,21.76
2018-08-18T16:33:15.769Z,21.76
2018-08-18T16:35:45.273Z,21.79
2018-08-18T16:38:14.003Z,22.01
2018-08-18T16:40:43.006Z,21.99
2018-08-18T16:43:12.916Z,21.96
2018-08-18T16:45:41.699Z,21.93
2018-08-18T16:48:11.919Z,21.99
2018-08-18T16:50:41.552Z,22.04
2018-08-18T16:53:11.705Z,22.01
2018-08-18T16:55:42.812Z,21.98
2018-08-18T16:58:11.663Z,21.82
2018-08-18T17:00:58.158Z,21.78
2018-08-18T17:03:33.240Z,21.62
2018-08-18T17:06:03.131Z,21.61
2018-08-18T17:08:31.951Z,21.57
2018-08-18T17:11:00.765Z,21.57
2018-08-18T17:13:31.386Z,21.66
2018-08-18T17:16:00.130Z,21.75
2018-08-18T17:18:32.142Z,21.74
2018-08-18T17:21:05.876Z,21.58
2018-08-18T17:23:40.720Z,21.38
2018-08-18T17:26:14.048Z,21.24
2018-08-18T17:28:47.449Z,21.18
2018-08-18T17:31:21.174Z,21.08
2018-08-18T17:33:54.192Z,21.07
2018-08-18T17:36:23.059Z,21.15
2018-08-18T17:38:51.797Z,21.17
2018-08-18T17:41:20.684Z,21.10
2018-08-18T17:43:49.427Z,21.07
2018-08-18T17:46:18.163Z,20.99
2018-08-18T17:48:52.144Z,20.97
2018-08-18T17:51:21.436Z,20.93
2018-08-18T17:53:56.705Z,20.85
2018-08-18T17:56:25.969Z,20.83
2018-08-18T17:58:54.737Z,20.86
2018-08-18T18:01:23.526Z,20.87
2018-08-18T18:03:52.252Z,20.85
2018-08-18T18:06:22.675Z,20.89
2018-08-18T18:08:51.370Z,20.94
2018-08-18T18:11:20.079Z,20.98
2018-08-18T18:13:48.811Z,21.00
2018-08-18T18:16:26.158Z,20.95
2018-08-18T18:18:57.192Z,20.89
2018-08-18T18:21:25.909Z,20.89
2018-08-18T18:23:54.629Z,20.90
2018-08-18T18:26:23.361Z,20.85
2018-08-18T18:28:52.130Z,20.83
2018-08-18T18:31:21.954Z,20.94
2018-08-18T18:33:56.809Z,20.94
2018-08-18T18:36:25.513Z,20.87
2018-08-18T18:38:56.137Z,20.68
2018-08-18T18:41:24.896Z,20.50
2018-08-18T18:43:57.701Z,20.43
2018-08-18T18:46:26.435Z,20.38
2018-08-18T18:48:55.225Z,20.37
2018-08-18T18:51:23.998Z,20.46
2018-08-18T18:53:53.485Z,20.45
2018-08-18T18:56:22.267Z,20.41
2018-08-18T18:58:51.003Z,20.42
2018-08-18T19:01:20.831Z,20.38
2018-08-18T19:03:49.689Z,20.49
2018-08-18T19:06:18.378Z,20.52
2018-08-18T19:08:58.017Z,20.43
2018-08-18T19:11:27.393Z,20.34
2018-08-18T19:13:56.215Z,20.26
2018-08-18T19:16:24.955Z,20.24
2018-08-18T19:18:53.797Z,20.22
2018-08-18T19:21:22.530Z,20.24
2018-08-18T19:23:51.225Z,20.18
2018-08-18T19:26:19.925Z,20.23
2018-08-18T19:28:48.633Z,20.29
2018-08-18T19:31:17.703Z,20.21
2018-08-18T19:33:46.804Z,20.12
2018-08-18T19:36:15.608Z,20.18
2018-08-18T19:38:44.322Z,20.12
2018-08-18T19:41:13.021Z,20.10
2018-08-18T19:43:41.845Z,20.11
2018-08-18T19:46:10.598Z,20.23
2018-08-18T19:48:39.313Z,20.14
2018-08-18T19:51:08.130Z,20.08
2018-08-18T19:53:36.870Z,19.98
2018-08-18T19:56:09.666Z,19.89
2018-08-18T19:58:38.413Z,19.80
2018-08-18T20:01:07.342Z,19.75
2018-08-18T20:03:36.057Z,19.69
2018-08-18T20:06:08.840Z,19.68
2018-08-18T20:08:37.545Z,19.68
2018-08-18T20:11:06.305Z,19.66
2018-08-18T20:13:35.009Z,19.70
2018-08-18T20:16:04.492Z,19.89
2018-08-18T20:18:33.571Z,19.85
2018-08-18T20:21:02.218Z,19.78
2018-08-18T20:23:31.054Z,19.73
2018-08-18T20:26:00.829Z,19.84
2018-08-18T20:28:29.548Z,19.92
2018-08-18T20:30:58.372Z,19.92
2018-08-18T20:33:27.067Z,19.78
2018-08-18T20:35:55.840Z,19.69
2018-08-18T20:38:25.267Z,19.59
2018-08-18T20:40:53.975Z,19.52
2018-08-18T20:43:22.690Z,19.57
2018-08-18T20:45:51.413Z,19.58
2018-08-18T20:48:22.071Z,19.55
2018-08-18T20:50:51.289Z,19.52
2018-08-18T20:53:20.132Z,19.48
2018-08-18T20:55:58.548Z,19.50
2018-08-18T20:58:27.825Z,19.50
2018-08-18T21:00:56.521Z,19.43
2018-08-18T21:03:56.062Z,19.48
2018-08-18T21:06:24.786Z,19.37
2018-08-18T21:08:53.526Z,19.38
2018-08-18T21:11:22.260Z,19.36
2018-08-18T21:13:51.858Z,19.30
2018-08-18T21:16:21.477Z,19.26
2018-08-18T21:18:50.249Z,19.22
2018-08-18T21:21:28.033Z,19.16
2018-08-18T21:23:56.730Z,19.12
2018-08-18T21:26:25.463Z,19.14
2018-08-18T21:28:55.594Z,19.15
2018-08-18T21:31:29.330Z,19.13
2018-08-18T21:33:59.822Z,19.25
2018-08-18T21:36:28.762Z,19.36
2018-08-18T21:39:00.452Z,19.29
2018-08-18T21:41:30.019Z,19.21
2018-08-18T21:43:58.905Z,19.18
2018-08-18T21:46:27.621Z,19.21
2018-08-18T21:48:56.326Z,19.24
2018-08-18T21:51:26.606Z,19.17
2018-08-18T21:53:55.487Z,19.11
2018-08-18T21:56:24.227Z,19.00
2018-08-18T21:58:53.031Z,18.86
2018-08-18T22:01:22.950Z,18.77
2018-08-18T22:03:54.543Z,18.82
2018-08-18T22:06:23.268Z,18.85
2018-08-18T22:08:52.072Z,18.96
2018-08-18T22:11:21.665Z,18.89
2018-08-18T22:13:53.480Z,18.90
2018-08-18T22:16:22.849Z,18.95
2018-08-18T22:18:57.196Z,18.84
2018-08-18T22:21:28.916Z,18.73
2018-08-18T22:23:59.787Z,18.66
2018-08-18T22:26:29.037Z,18.62
2018-08-18T22:29:03.074Z,18.56
2018-08-18T22:31:32.265Z,18.66
2018-08-18T22:34:02.082Z,18.70
2018-08-18T22:36:32.102Z,18.88
2018-08-18T22:39:01.519Z,18.97
2018-08-18T22:41:30.325Z,19.03
2018-08-18T22:43:59.354Z,18.93
2018-08-18T22:46:30.487Z,19.03
2018-08-18T22:48:59.271Z,18.95
2018-08-18T22:51:27.970Z,18.96
2018-08-18T22:53:57.524Z,18.83
2018-08-18T22:56:31.543Z,18.82
2018-08-18T22:59:02.357Z,18.71
2018-08-18T23:01:31.360Z,18.59
2018-08-18T23:04:00.099Z,18.59
2018-08-18T23:06:30.665Z,18.59
2018-08-18T23:08:59.381Z,18.53
2018-08-18T23:11:28.113Z,18.45
2018-08-18T23:13:56.874Z,18.44
2018-08-18T23:16:25.624Z,18.43
2018-08-18T23:18:54.377Z,18.32
2018-08-18T23:21:29.441Z,18.20
2018-08-18T23:23:59.486Z,18.19
2018-08-18T23:26:28.303Z,18.21
2018-08-18T23:28:57.115Z,18.24
2018-08-18T23:31:25.953Z,18.25
2018-08-18T23:33:54.888Z,18.40
2018-08-18T23:36:23.677Z,18.46
2018-08-18T23:38:58.447Z,18.44
2018-08-18T23:41:27.234Z,18.35
2018-08-18T23:43:55.942Z,18.39
2018-08-18T23:46:24.670Z,18.48
2018-08-18T23:48:53.365Z,18.41
2018-08-18T23:51:28.197Z,18.33
2018-08-18T23:53:56.981Z,18.23
2018-08-18T23:56:28.977Z,18.15
2018-08-18T23:58:58.617Z,18.10
